createdAt,value
2018-10-09T01:13:58.545Z,100956.28
2018-10-09T01:16:25.960Z,100955.70
2018-10-09T01:18:53.407Z,100963.14
2018-10-09T01:21:20.827Z,100963.34
2018-10-09T01:23:48.246Z,100969.82
2018-10-09T01:26:15.676Z,100966.38
2018-10-09T01:28:43.096Z,100975.06
2018-10-09T01:31:10.614Z,100970.70
2018-10-09T01:33:38.036Z,100961.34
2018-10-09T01:36:05.451Z,100964.80
2018-10-09T01:38:32.872Z,100964.05
2018-10-09T01:41:00.300Z,100969.09
2018-10-09T01:43:27.724Z,100964.41
2018-10-09T01:45:55.339Z,100960.05
2018-10-09T01:48:22.805Z,100954.20
2018-10-09T01:50:50.257Z,100956.63
2018-10-09T01:53:17.712Z,100955.42
2018-10-09T01:55:45.207Z,100949.64
2018-10-09T01:58:12.614Z,100952.98
2018-10-09T02:00:40.039Z,100947.53
2018-10-09T02:03:07.547Z,100948.55
2018-10-09T02:05:35.004Z,100945.23
2018-10-09T02:08:02.560Z,100948.27
2018-10-09T02:10:29.987Z,100948.36
2018-10-09T02:12:57.487Z,100948.88
2018-10-09T02:15:24.937Z,100949.20
2018-10-09T02:17:52.351Z,100953.69
2018-10-09T02:20:19.855Z,100951.95
2018-10-09T02:22:47.264Z,100944.20
2018-10-09T02:25:14.687Z,100947.14
2018-10-09T02:27:42.095Z,100949.59
2018-10-09T02:30:09.885Z,100950.88
2018-10-09T02:32:37.270Z,100947.89
2018-10-09T02:35:04.696Z,100942.31
2018-10-09T02:37:32.165Z,100944.77
2018-10-09T02:39:59.588Z,100955.82
2018-10-09T02:42:27.039Z,100957.20
2018-10-09T02:44:54.476Z,100953.19
2018-10-09T02:47:21.887Z,100952.22
2018-10-09T02:49:49.313Z,100943.04
2018-10-09T02:52:16.727Z,100943.09
2018-10-09T02:54:44.255Z,100942.43
2018-10-09T02:57:11.666Z,100944.72
2018-10-09T02:59:39.187Z,100947.40
2018-10-09T03:02:06.631Z,100945.67
2018-10-09T03:04:34.091Z,100946.19
2018-10-09T03:07:01.510Z,100945.75
2018-10-09T03:09:28.927Z,100942.20
2018-10-09T03:11:56.355Z,100946.41
2018-10-09T03:14:23.788Z,100944.55
2018-10-09T03:16:51.236Z,100949.00
2018-10-09T03:19:18.659Z,100948.95
2018-10-09T03:21:46.067Z,100944.24
2018-10-09T03:24:13.538Z,100937.17
2018-10-09T03:26:40.954Z,100934.02
2018-10-09T03:29:08.456Z,100935.44
2018-10-09T03:31:35.891Z,100934.38
2018-10-09T03:34:03.315Z,100936.81
2018-10-09T03:36:30.739Z,100940.69
2018-10-09T03:38:58.151Z,100936.86
2018-10-09T03:41:25.619Z,100934.95
2018-10-09T03:43:53.199Z,100928.45
2018-10-09T03:46:20.667Z,100928.80
2018-10-09T03:48:48.075Z,100929.64
2018-10-09T03:51:15.503Z,100928.08
2018-10-09T03:53:42.925Z,100931.55
2018-10-09T03:56:10.350Z,100928.69
2018-10-09T03:58:37.847Z,100934.66
2018-10-09T04:01:05.378Z,100945.03
2018-10-09T04:03:33.040Z,100942.41
2018-10-09T04:06:00.524Z,100943.34
2018-10-09T04:08:27.951Z,100948.20
2018-10-09T04:10:55.436Z,100944.78
2018-10-09T04:13:22.898Z,100940.91
2018-10-09T04:15:50.434Z,100946.42
2018-10-09T04:18:17.915Z,100946.28
2018-10-09T04:20:45.439Z,100950.03
2018-10-09T04:23:12.877Z,100945.06
2018-10-09T04:25:40.291Z,100948.73
2018-10-09T04:28:07.744Z,100950.82
2018-10-09T04:30:35.183Z,100948.27
2018-10-09T04:33:02.602Z,100950.69
2018-10-09T04:35:30.099Z,100950.38
2018-10-09T04:37:57.467Z,100949.00
2018-10-09T04:40:24.880Z,100952.65
2018-10-09T04:42:52.295Z,100948.91
2018-10-09T04:45:19.748Z,100957.00
2018-10-09T04:47:47.178Z,100952.80
2018-10-09T04:50:14.612Z,100956.83
2018-10-09T04:52:42.037Z,100949.53
2018-10-09T04:55:09.472Z,100957.92
2018-10-09T04:57:36.892Z,100950.22
2018-10-09T05:00:04.443Z,100954.72
2018-10-09T05:02:31.854Z,100942.82
2018-10-09T05:04:59.283Z,100940.09
2018-10-09T05:07:26.691Z,100937.22
2018-10-09T05:09:54.111Z,100940.66
2018-10-09T05:12:21.547Z,100943.08
2018-10-09T05:14:48.974Z,100938.81
2018-10-09T05:17:16.484Z,100938.61
2018-10-09T05:19:43.946Z,100942.16
2018-10-09T05:22:11.363Z,100943.11
2018-10-09T05:24:38.779Z,100945.52
2018-10-09T05:27:06.227Z,100953.42
2018-10-09T05:29:33.630Z,100962.19
2018-10-09T05:32:01.132Z,100966.42
2018-10-09T05:34:28.548Z,100965.74
2018-10-09T05:36:56.046Z,100965.08
2018-10-09T05:39:23.464Z,100974.37
2018-10-09T05:41:50.875Z,100970.69
2018-10-09T05:44:18.345Z,100959.98
2018-10-09T05:46:45.787Z,100970.34
2018-10-09T05:49:13.201Z,100966.47
2018-10-09T05:51:40.615Z,100973.51
2018-10-09T05:54:08.040Z,100968.84
2018-10-09T05:56:35.606Z,100970.40
2018-10-09T05:59:03.074Z,100967.27
2018-10-09T06:01:30.515Z,100963.75
2018-10-09T06:03:57.931Z,100967.62
2018-10-09T06:06:25.352Z,100962.00
2018-10-09T06:08:52.779Z,100967.24
2018-10-09T06:11:20.196Z,100974.80
2018-10-09T06:13:47.608Z,100982.80
2018-10-09T06:16:15.029Z,100984.53
2018-10-09T06:18:42.449Z,100982.08
2018-10-09T06:21:09.872Z,100987.38
2018-10-09T06:23:37.343Z,100990.95
2018-10-09T06:26:04.763Z,100986.07
2018-10-09T06:28:32.246Z,100991.31
2018-10-09T06:30:59.614Z,100995.92
2018-10-09T06:33:27.053Z,100984.84
2018-10-09T06:35:54.519Z,100984.67
2018-10-09T06:38:21.955Z,100983.58
2018-10-09T06:40:49.447Z,100984.66
2018-10-09T06:43:17.021Z,100993.62
2018-10-09T06:45:44.388Z,100991.53
2018-10-09T06:48:11.803Z,101000.89
2018-10-09T06:50:39.233Z,101011.56
2018-10-09T06:53:06.659Z,101000.73
2018-10-09T06:55:34.076Z,101008.94
2018-10-09T06:58:01.499Z,101017.25
2018-10-09T07:00:28.920Z,101021.47
2018-10-09T07:02:56.354Z,101019.38
2018-10-09T07:05:23.784Z,101022.76
2018-10-09T07:07:51.210Z,101023.30
2018-10-09T07:10:18.727Z,101023.34
2018-10-09T07:12:46.148Z,101030.66
2018-10-09T07:15:13.645Z,101032.20
2018-10-09T07:17:41.095Z,101031.30
2018-10-09T07:20:08.528Z,101037.43
2018-10-09T07:22:35.959Z,101032.33
2018-10-09T07:25:03.368Z,101033.89
2018-10-09T07:27:30.799Z,101034.73
2018-10-09T07:29:58.216Z,101035.38
2018-10-09T07:32:25.660Z,101033.83
2018-10-09T07:34:53.091Z,101041.39
2018-10-09T07:37:20.518Z,101040.87
2018-10-09T07:39:47.948Z,101043.55
2018-10-09T07:42:15.355Z,101036.13
2018-10-09T07:44:42.779Z,101034.37
2018-10-09T07:47:10.219Z,101034.15
2018-10-09T07:49:37.640Z,101035.83
2018-10-09T07:52:05.059Z,101042.80
2018-10-09T07:54:32.507Z,101044.45
2018-10-09T07:57:00.135Z,101040.16
2018-10-09T07:59:27.567Z,101043.30
2018-10-09T08:01:55.027Z,101059.59
2018-10-09T08:04:22.435Z,101060.17
2018-10-09T08:06:49.871Z,101054.94
2018-10-09T08:09:17.299Z,101057.06
2018-10-09T08:11:44.729Z,101053.88
2018-10-09T08:14:12.147Z,101044.72
2018-10-09T08:16:39.577Z,101042.30
2018-10-09T08:19:07.007Z,101056.31
2018-10-09T08:21:34.424Z,101051.81
2018-10-09T08:24:01.852Z,101051.41
2018-10-09T08:26:29.271Z,101050.37
2018-10-09T08:28:56.702Z,101050.33
2018-10-09T08:31:24.122Z,101047.41
2018-10-09T08:33:51.561Z,101045.67
2018-10-09T08:36:18.977Z,101051.70
2018-10-09T08:38:46.412Z,101058.56
2018-10-09T08:41:13.856Z,101055.98
2018-10-09T08:43:41.251Z,101059.81
2018-10-09T08:46:08.736Z,101063.25
2018-10-09T08:48:36.123Z,101062.25
2018-10-09T08:51:03.577Z,101063.60
2018-10-09T08:53:30.995Z,101072.36
2018-10-09T08:55:58.437Z,101074.22
2018-10-09T08:58:25.887Z,101072.19
2018-10-09T09:00:53.326Z,101069.78
2018-10-09T09:03:20.803Z,101066.97
2018-10-09T09:05:48.195Z,101069.38
2018-10-09T09:08:15.623Z,101078.19
2018-10-09T09:10:43.057Z,101066.85
2018-10-09T09:13:10.485Z,101069.77
2018-10-09T09:15:37.915Z,101064.30
2018-10-09T09:18:05.349Z,101064.02
2018-10-09T09:20:32.842Z,101054.76
2018-10-09T09:23:00.197Z,101062.55
2018-10-09T09:25:27.620Z,101057.33
2018-10-09T09:27:55.049Z,101061.46
2018-10-09T09:30:22.540Z,101062.09
2018-10-09T09:32:49.951Z,101056.98
2018-10-09T09:35:17.388Z,101060.42
2018-10-09T09:37:44.807Z,101062.53
2018-10-09T09:40:12.249Z,101065.50
2018-10-09T09:42:39.666Z,101062.48
2018-10-09T09:45:07.192Z,101060.81
2018-10-09T09:47:34.623Z,101065.53
2018-10-09T09:50:02.053Z,101063.44
2018-10-09T09:52:29.472Z,101060.16
2018-10-09T09:54:56.895Z,101063.31
2018-10-09T09:57:24.319Z,101067.81
2018-10-09T09:59:52.248Z,101067.75
2018-10-09T10:02:19.701Z,101072.34
2018-10-09T10:04:47.132Z,101070.31
2018-10-09T10:07:14.555Z,101077.77
2018-10-09T10:09:41.984Z,101075.15
2018-10-09T10:12:09.409Z,101071.06
2018-10-09T10:14:36.824Z,101071.65
2018-10-09T10:17:04.249Z,101066.32
2018-10-09T10:19:31.675Z,101062.42
2018-10-09T10:21:59.108Z,101061.42
2018-10-09T10:24:26.537Z,101062.42
2018-10-09T10:26:53.972Z,101059.59
2018-10-09T10:29:21.406Z,101066.12
2018-10-09T10:31:48.820Z,101059.74
2018-10-09T10:34:16.240Z,101060.27
2018-10-09T10:36:43.672Z,101055.45
2018-10-09T10:39:11.934Z,101060.91
2018-10-09T10:41:39.368Z,101057.53
2018-10-09T10:44:06.776Z,101053.15
2018-10-09T10:46:37.331Z,101053.30
2018-10-09T10:49:05.506Z,101047.23
2018-10-09T10:51:32.812Z,101042.91
2018-10-09T10:54:00.224Z,101036.89
2018-10-09T10:56:27.791Z,101036.45
2018-10-09T10:58:55.220Z,101036.46
2018-10-09T11:01:22.750Z,101030.37
2018-10-09T11:03:50.057Z,101026.93
2018-10-09T11:06:17.700Z,101027.84
2018-10-09T11:08:45.152Z,101028.31
2018-10-09T11:11:12.572Z,101028.76
2018-10-09T11:13:39.999Z,101027.42
2018-10-09T11:16:07.423Z,101017.83
2018-10-09T11:18:34.843Z,101022.14
2018-10-09T11:21:02.313Z,101018.71
2018-10-09T11:23:29.700Z,101022.25
2018-10-09T11:25:57.123Z,101014.81
2018-10-09T11:28:24.543Z,101011.81
2018-10-09T11:30:51.976Z,101010.14
2018-10-09T11:33:19.420Z,101008.39
2018-10-09T11:35:46.844Z,101016.28
2018-10-09T11:38:14.272Z,101013.59
2018-10-09T11:40:42.304Z,101006.13
2018-10-09T11:43:09.720Z,101010.52
2018-10-09T11:45:37.144Z,100996.96
2018-10-09T11:48:04.568Z,100997.00
2018-10-09T11:50:31.997Z,100994.41
2018-10-09T11:53:00.005Z,100996.16
2018-10-09T11:55:27.437Z,100991.78
2018-10-09T11:57:55.327Z,100995.70
2018-10-09T12:00:22.753Z,100987.42
2018-10-09T12:02:50.209Z,100987.84
2018-10-09T12:05:17.599Z,100988.30
2018-10-09T12:07:45.036Z,100985.66
2018-10-09T12:10:12.528Z,100985.64
2018-10-09T12:12:39.948Z,100987.86
2018-10-09T12:15:07.377Z,100976.91
2018-10-09T12:17:34.797Z,100973.83
2018-10-09T12:20:02.223Z,100975.57
2018-10-09T12:22:29.639Z,100974.28
2018-10-09T12:24:57.055Z,100967.68
2018-10-09T12:27:24.473Z,100965.08
2018-10-09T12:29:51.971Z,100965.05
2018-10-09T12:32:19.392Z,100960.23
2018-10-09T12:34:46.803Z,100959.79
2018-10-09T12:37:14.231Z,100952.35
2018-10-09T12:39:41.647Z,100950.58
2018-10-09T12:42:09.083Z,100950.14
2018-10-09T12:44:36.515Z,100950.14
2018-10-09T12:47:03.947Z,100951.89
2018-10-09T12:49:31.363Z,100949.72
2018-10-09T12:51:58.789Z,100943.99
2018-10-09T12:54:26.201Z,100944.00
2018-10-09T12:56:53.653Z,100946.19
2018-10-09T12:59:21.035Z,100947.95
2018-10-09T13:01:48.474Z,100943.98
2018-10-09T13:04:15.901Z,100947.49
2018-10-09T13:06:43.322Z,100943.58
2018-10-09T13:09:12.213Z,100944.02
2018-10-09T13:11:39.650Z,100943.57
2018-10-09T13:14:07.069Z,100941.39
2018-10-09T13:16:34.488Z,100938.77
2018-10-09T13:19:02.015Z,100948.79
2018-10-09T13:21:29.612Z,100947.05
2018-10-09T13:23:56.892Z,100940.91
2018-10-09T13:26:24.316Z,100939.56
2018-10-09T13:28:51.754Z,100934.76
2018-10-09T13:31:19.173Z,100934.75
2018-10-09T13:33:46.586Z,100933.47
2018-10-09T13:36:14.015Z,100929.05
2018-10-09T13:38:41.432Z,100935.19
2018-10-09T13:41:08.905Z,100925.59
2018-10-09T13:43:36.257Z,100924.73
2018-10-09T13:46:03.684Z,100920.34
2018-10-09T13:48:31.125Z,100915.95
2018-10-09T13:50:58.607Z,100912.86
2018-10-09T13:53:25.955Z,100905.41
2018-10-09T13:55:53.427Z,100910.25
2018-10-09T13:58:20.828Z,100900.63
2018-10-09T14:00:48.241Z,100908.05
2018-10-09T14:03:15.663Z,100900.59
2018-10-09T14:05:43.081Z,100898.84
2018-10-09T14:08:10.496Z,100894.42
2018-10-09T14:10:37.920Z,100898.83
2018-10-09T14:13:05.348Z,100900.15
2018-10-09T14:15:32.768Z,100897.07
2018-10-09T14:18:00.191Z,100893.58
2018-10-09T14:20:27.599Z,100895.36
2018-10-09T14:22:55.085Z,100891.41
2018-10-09T14:25:22.427Z,100893.98
2018-10-09T14:27:49.847Z,100883.95
2018-10-09T14:30:17.270Z,100885.68
2018-10-09T14:32:44.690Z,100884.81
2018-10-09T14:35:12.108Z,100883.08
2018-10-09T14:37:39.531Z,100880.42
2018-10-09T14:40:06.956Z,100882.59
2018-10-09T14:42:34.387Z,100882.62
2018-10-09T14:45:01.808Z,100885.69
2018-10-09T14:47:29.229Z,100878.25
2018-10-09T14:49:56.639Z,100874.33
2018-10-09T14:52:24.064Z,100875.20
2018-10-09T14:54:51.482Z,100869.06
2018-10-09T14:57:18.897Z,100874.31
2018-10-09T14:59:46.300Z,100869.96
2018-10-09T15:02:13.719Z,100880.48
2018-10-09T15:04:41.140Z,100884.42
2018-10-09T15:07:08.570Z,100884.02
2018-10-09T15:09:36.029Z,100884.87
2018-10-09T15:12:03.412Z,100875.66
2018-10-09T15:14:30.855Z,100881.37
2018-10-09T15:16:58.350Z,100880.48
2018-10-09T15:19:25.703Z,100877.42
2018-10-09T15:21:53.164Z,100885.76
2018-10-09T15:24:20.574Z,100884.89
2018-10-09T15:26:48.005Z,100887.52
2018-10-09T15:29:15.510Z,100884.91
2018-10-09T15:31:42.943Z,100886.60
2018-10-09T15:34:10.334Z,100881.80
2018-10-09T15:36:37.768Z,100875.23
2018-10-09T15:39:05.208Z,100875.67
2018-10-09T15:41:32.702Z,100868.22
2018-10-09T15:44:00.047Z,100873.45
2018-10-09T15:46:27.479Z,100866.91
2018-10-09T15:48:54.901Z,100873.88
2018-10-09T15:51:22.310Z,100872.10
2018-10-09T15:53:49.739Z,100883.03
2018-10-09T15:56:17.175Z,100883.38
2018-10-09T15:58:44.588Z,100888.14
2018-10-09T16:01:12.009Z,100885.44
2018-10-09T16:03:39.419Z,100890.64
2018-10-09T16:06:06.827Z,100887.47
2018-10-09T16:08:34.260Z,100887.08
2018-10-09T16:11:01.685Z,100881.70
2018-10-09T16:13:29.101Z,100888.16
2018-10-09T16:15:56.520Z,100892.30
2018-10-09T16:18:23.939Z,100892.75
2018-10-09T16:20:51.413Z,100898.37
2018-10-09T16:23:18.782Z,100893.46
2018-10-09T16:25:46.223Z,100895.53
2018-10-09T16:28:13.655Z,100894.48
2018-10-09T16:30:41.079Z,100892.09
2018-10-09T16:33:08.500Z,100888.88
2018-10-09T16:35:35.921Z,100895.04
2018-10-09T16:38:03.337Z,100897.56
2018-10-09T16:40:30.827Z,100906.77
2018-10-09T16:42:58.177Z,100903.55
2018-10-09T16:45:25.606Z,100901.38
2018-10-09T16:47:53.020Z,100909.02
2018-10-09T16:50:20.444Z,100910.41
2018-10-09T16:52:47.852Z,100920.05
2018-10-09T16:55:15.271Z,100926.05
2018-10-09T16:57:42.683Z,100924.08
2018-10-09T17:00:10.112Z,100929.00
2018-10-09T17:02:37.543Z,100930.20
2018-10-09T17:05:04.964Z,100938.94
2018-10-09T17:07:32.383Z,100941.55
2018-10-09T17:09:59.819Z,100941.91
2018-10-09T17:12:27.236Z,100946.53
2018-10-09T17:14:54.668Z,100946.00
2018-10-09T17:17:22.089Z,100941.38
2018-10-09T17:19:49.613Z,100941.63
2018-10-09T17:22:17.000Z,100954.97
2018-10-09T17:24:44.359Z,100950.97
2018-10-09T17:27:11.776Z,100952.20
2018-10-09T17:29:39.204Z,100960.50
2018-10-09T17:32:06.615Z,100965.53
2018-10-09T17:34:34.055Z,100961.20
2018-10-09T17:37:01.461Z,100964.86
2018-10-09T17:39:28.884Z,100963.42
2018-10-09T17:41:56.305Z,100962.83
2018-10-09T17:44:23.729Z,100958.50
2018-10-09T17:46:51.172Z,100968.80
2018-10-09T17:49:18.604Z,100972.16
2018-10-09T17:51:46.017Z,100969.45
2018-10-09T17:54:13.445Z,100977.04
2018-10-09T17:56:40.869Z,100973.73
2018-10-09T17:59:08.320Z,100975.36
2018-10-09T18:01:35.809Z,100980.97
2018-10-09T18:04:03.257Z,100986.08
2018-10-09T18:06:30.672Z,100988.30
2018-10-09T18:08:58.162Z,100988.44
2018-10-09T18:11:25.548Z,100984.53
2018-10-09T18:13:52.971Z,100984.41
2018-10-09T18:16:20.387Z,100989.47
2018-10-09T18:18:47.810Z,100988.00
2018-10-09T18:21:15.245Z,100984.88
2018-10-09T18:23:42.680Z,100989.66
2018-10-09T18:26:10.144Z,100993.45
2018-10-09T18:28:37.540Z,100994.87
2018-10-09T18:31:04.964Z,100993.34
2018-10-09T18:33:32.464Z,100997.78
2018-10-09T18:35:59.912Z,100996.75
2018-10-09T18:38:27.342Z,101001.55
2018-10-09T18:40:54.870Z,101002.63
2018-10-09T18:43:22.219Z,101003.15
2018-10-09T18:45:49.672Z,101000.97
2018-10-09T18:48:17.101Z,101001.86
2018-10-09T18:50:44.523Z,101004.75
2018-10-09T18:53:11.955Z,101005.42
2018-10-09T18:55:39.400Z,101005.28
2018-10-09T18:58:06.816Z,101004.09
2018-10-09T19:00:34.282Z,101003.74
2018-10-09T19:03:01.675Z,101001.14
2018-10-09T19:05:29.100Z,101004.70
2018-10-09T19:07:56.545Z,101006.59
2018-10-09T19:10:24.052Z,101010.96
2018-10-09T19:12:51.472Z,101008.48
2018-10-09T19:15:18.900Z,101014.77
2018-10-09T19:17:46.372Z,101009.42
2018-10-09T19:20:13.766Z,101012.56
2018-10-09T19:22:41.210Z,101017.58
2018-10-09T19:25:08.835Z,101018.22
2018-10-09T19:27:36.259Z,101018.44
2018-10-09T19:30:03.683Z,101021.72
2018-10-09T19:32:31.153Z,101027.19
2018-10-09T19:34:58.528Z,101029.97
2018-10-09T19:37:25.952Z,101027.19
2018-10-09T19:39:53.376Z,101029.71
2018-10-09T19:42:20.815Z,101032.41
2018-10-09T19:44:48.238Z,101028.70
2018-10-09T19:47:15.678Z,101032.89
2018-10-09T19:49:43.132Z,101030.16
2018-10-09T19:52:10.577Z,101031.77
2018-10-09T19:54:38.009Z,101031.66
2018-10-09T19:57:05.437Z,101034.66
2018-10-09T19:59:32.861Z,101035.55
2018-10-09T20:02:00.295Z,101035.30
2018-10-09T20:04:27.744Z,101043.86
2018-10-09T20:06:55.188Z,101041.85
2018-10-09T20:09:22.627Z,101034.05
2018-10-09T20:11:50.047Z,101028.02
2018-10-09T20:14:17.514Z,101033.99
2018-10-09T20:16:44.915Z,101028.23
2018-10-09T20:19:12.588Z,101029.20
2018-10-09T20:21:40.079Z,101034.55
2018-10-09T20:24:07.600Z,101028.58
2018-10-09T20:26:35.277Z,101027.83
2018-10-09T20:29:02.732Z,101030.13
2018-10-09T20:31:30.197Z,101035.12
2018-10-09T20:33:57.700Z,101035.86
2018-10-09T20:36:25.143Z,101037.58
2018-10-09T20:38:52.664Z,101037.24
2018-10-09T20:41:20.148Z,101039.38
2018-10-09T20:43:47.564Z,101037.09
2018-10-09T20:46:15.072Z,101042.73
2018-10-09T20:48:42.499Z,101044.20
2018-10-09T20:51:09.931Z,101044.66
2018-10-09T20:53:37.369Z,101044.18
2018-10-09T20:56:04.803Z,101040.64
2018-10-09T20:58:32.248Z,101048.34
2018-10-09T21:00:59.672Z,101046.16
2018-10-09T21:03:27.714Z,101050.98
2018-10-09T21:05:55.561Z,101046.30
2018-10-09T21:08:22.960Z,101041.72
2018-10-09T21:10:50.383Z,101045.59
2018-10-09T21:13:17.812Z,101042.78
2018-10-09T21:15:45.248Z,101047.36
2018-10-09T21:18:12.728Z,101042.24
2018-10-09T21:20:40.128Z,101043.48
2018-10-09T21:23:07.555Z,101048.11
2018-10-09T21:25:34.971Z,101048.66
2018-10-09T21:28:02.399Z,101049.17
2018-10-09T21:30:29.924Z,101048.16
2018-10-09T21:32:57.344Z,101044.97
2018-10-09T21:35:24.827Z,101044.98
2018-10-09T21:37:52.291Z,101049.17
2018-10-09T21:40:19.724Z,101050.75
2018-10-09T21:42:47.147Z,101048.60
2018-10-09T21:45:14.628Z,101050.37
2018-10-09T21:47:47.374Z,101049.61
2018-10-09T21:50:14.792Z,101041.34
2018-10-09T21:52:42.231Z,101046.75
2018-10-09T21:55:09.655Z,101045.08
2018-10-09T21:57:37.091Z,101038.54
2018-10-09T22:00:04.511Z,101041.38
2018-10-09T22:02:31.943Z,101037.90
2018-10-09T22:04:59.447Z,101043.91
2018-10-09T22:07:26.870Z,101050.05
2018-10-09T22:09:54.292Z,101037.66
2018-10-09T22:12:21.724Z,101040.08
2018-10-09T22:14:49.144Z,101040.05
2018-10-09T22:17:16.633Z,101039.20
2018-10-09T22:19:44.051Z,101048.00
2018-10-09T22:22:11.475Z,101050.97
2018-10-09T22:24:39.000Z,101047.77
2018-10-09T22:27:06.440Z,101046.91
2018-10-09T22:29:33.854Z,101046.57
2018-10-09T22:32:01.277Z,101044.22
2018-10-09T22:34:28.707Z,101047.13
2018-10-09T22:36:56.183Z,101044.15
2018-10-09T22:39:23.643Z,101043.43
2018-10-09T22:41:51.055Z,101038.42
2018-10-09T22:44:18.484Z,101043.41
2018-10-09T22:46:45.909Z,101045.22
2018-10-09T22:49:13.335Z,101048.98
2018-10-09T22:51:40.827Z,101051.50
2018-10-09T22:54:08.266Z,101050.81
2018-10-09T22:56:35.683Z,101057.98
2018-10-09T22:59:03.200Z,101060.16
2018-10-09T23:01:30.627Z,101060.09
2018-10-09T23:03:58.123Z,101053.98
2018-10-09T23:06:25.547Z,101050.22
2018-10-09T23:08:53.031Z,101055.40
2018-10-09T23:11:20.447Z,101056.84
2018-10-09T23:13:47.871Z,101055.42
2018-10-09T23:16:15.300Z,101048.17
2018-10-09T23:18:42.771Z,101053.87
2018-10-09T23:21:10.183Z,101054.17
2018-10-09T23:23:37.676Z,101049.95
2018-10-09T23:26:05.116Z,101048.56
2018-10-09T23:28:32.544Z,101053.53
2018-10-09T23:31:00.052Z,101048.35
2018-10-09T23:33:27.472Z,101046.48
2018-10-09T23:35:54.968Z,101049.78
2018-10-09T23:38:22.403Z,101058.44
2018-10-09T23:40:49.832Z,101055.64
2018-10-09T23:43:17.373Z,101056.16
2018-10-09T23:45:44.767Z,101048.48
2018-10-09T23:48:12.255Z,101050.79
2018-10-09T23:50:41.051Z,101054.67
2018-10-09T23:53:08.467Z,101053.05
2018-10-09T23:55:36.343Z,101056.38
2018-10-09T23:58:03.764Z,101055.52
